Аэропорт: Могилёв. Могилёв

ICAO: UMOO

METAR:
Информация по данной станции не доступна
METAR:
2021-04-21 11:01:00
TAF UMOO 211101Z 2112/2121 28005MPS 6000 BKN015 TEMPO 2112/2121 25005G10MPS 3000 -SHRA BR BKN005 SCT015CB